sensor_id;sensor_type;location;lat;lon;timestamp;pressure;altitude;pressure_sealevel;temperature;humidity
1776;BME280;885;42.626;23.200;2023-08-20T05:21:20;142478.66;;;20.21;94.99
1776;BME280;885;42.626;23.200;2023-08-20T05:23:47;143253.59;;;20.32;96.22
1776;BME280;885;42.626;23.200;2023-08-20T05:26:14;143267.47;;;20.38;95.65
1776;BME280;885;42.626;23.200;2023-08-20T05:28:42;143656.25;;;20.44;95.36
1776;BME280;885;42.626;23.200;2023-08-20T05:31:10;143689.94;;;20.59;93.59
1776;BME280;885;42.626;23.200;2023-08-20T05:33:37;144094.06;;;20.72;94.21
1776;BME280;885;42.626;23.200;2023-08-20T05:36:04;144498.41;;;20.84;94.36
1776;BME280;885;42.626;23.200;2023-08-20T05:38:32;145299.50;;;21.06;94.66
1776;BME280;885;42.626;23.200;2023-08-20T05:40:59;145351.19;;;21.28;90.82
1776;BME280;885;42.626;23.200;2023-08-20T05:43:26;145400.47;;;21.49;88.67
1776;BME280;885;42.626;23.200;2023-08-20T05:45:53;145838.66;;;21.76;86.48
1776;BME280;885;42.626;23.200;2023-08-20T05:48:20;146276.00;;;22.02;85.55
1776;BME280;885;42.626;23.200;2023-08-20T05:50:47;147099.56;;;22.32;84.36
1776;BME280;885;42.626;23.200;2023-08-20T05:53:14;147151.81;;;22.54;82.49
1776;BME280;885;42.626;23.200;2023-08-20T05:55:42;147188.69;;;22.70;80.55
1776;BME280;885;42.626;23.200;2023-08-20T05:58:09;147599.88;;;22.84;81.30
1776;BME280;885;42.626;23.200;2023-08-20T06:00:36;148421.66;;;23.13;80.33
1776;BME280;885;42.626;23.200;2023-08-20T06:03:04;148469.63;;;23.33;78.65
1776;BME280;885;42.626;23.200;2023-08-20T06:05:32;148897.16;;;23.54;77.88
1776;BME280;885;42.626;23.200;2023-08-20T06:07:59;148921.22;;;23.64;77.38
1776;BME280;885;42.626;23.200;2023-08-20T06:10:26;148137.88;;;23.52;77.06
1776;BME280;885;42.626;23.200;2023-08-20T06:12:55;148128.34;;;23.48;77.66
1776;BME280;885;42.626;23.200;2023-08-20T06:15:22;148117.59;;;23.44;78.20
1776;BME280;885;42.626;23.200;2023-08-20T06:17:49;148140.31;;;23.53;78.26
1776;BME280;885;42.626;23.200;2023-08-20T06:20:16;148137.88;;;23.52;77.81
1776;BME280;885;42.626;23.200;2023-08-20T06:22:44;148142.66;;;23.54;78.03
1776;BME280;885;42.626;23.200;2023-08-20T06:25:11;148162.97;;;23.63;78.02
1776;BME280;885;42.626;23.200;2023-08-20T06:27:38;148178.53;;;23.69;77.08
1776;BME280;885;42.626;23.200;2023-08-20T06:30:07;148594.22;;;23.86;77.30
1776;BME280;885;42.626;23.200;2023-08-20T06:32:35;148613.38;;;23.94;76.03
1776;BME280;885;42.626;23.200;2023-08-20T06:35:02;148622.97;;;23.98;76.37
1776;BME280;885;42.626;23.200;2023-08-20T06:37:29;149022.13;;;24.07;76.05
1776;BME280;885;42.626;23.200;2023-08-20T06:39:56;149434.72;;;24.21;75.80
1776;BME280;885;42.626;23.200;2023-08-20T06:42:23;149457.63;;;24.31;75.29
1776;BME280;885;42.626;23.200;2023-08-20T06:44:51;149860.81;;;24.41;75.20
1776;BME280;885;42.626;23.200;2023-08-20T06:47:19;149882.56;;;24.51;74.27
1776;BME280;885;42.626;23.200;2023-08-20T06:49:46;149895.84;;;24.56;74.06
1776;BME280;885;42.626;23.200;2023-08-20T06:52:13;149508.22;;;24.52;73.44
1776;BME280;885;42.626;23.200;2023-08-20T06:54:39;149929.66;;;24.70;72.90
1776;BME280;885;42.626;23.200;2023-08-20T06:57:06;149964.75;;;24.85;71.89
1776;BME280;885;42.626;23.200;2023-08-20T06:59:33;150778.25;;;25.08;71.74
1776;BME280;885;42.626;23.200;2023-08-20T07:02:00;151209.06;;;25.30;70.89
1776;BME280;885;42.626;23.200;2023-08-20T07:04:30;151266.31;;;25.54;68.75
1776;BME280;885;42.626;23.200;2023-08-20T07:06:59;150586.56;;;25.86;62.96
1776;BME280;885;42.626;23.200;2023-08-20T07:09:26;151504.00;;;26.52;61.94
1776;BME280;885;42.626;23.200;2023-08-20T07:11:53;152910.16;;;27.62;58.56
1776;BME280;885;42.626;23.200;2023-08-20T07:14:19;153111.88;;;28.44;55.42
1776;BME280;885;42.626;23.200;2023-08-20T07:16:46;152804.88;;;28.74;54.92
1776;BME280;885;42.626;23.200;2023-08-20T07:19:13;150854.09;;;28.55;52.62
1776;BME280;885;42.626;23.200;2023-08-20T07:21:42;149238.88;;;28.15;52.69
1776;BME280;885;42.626;23.200;2023-08-20T07:24:09;147170.88;;;27.44;55.31
1776;BME280;885;42.626;23.200;2023-08-20T07:26:36;146351.97;;;27.18;56.47
1776;BME280;885;42.626;23.200;2023-08-20T07:29:03;145503.53;;;26.80;57.17
1776;BME280;885;42.626;23.200;2023-08-20T07:31:31;145883.66;;;26.80;59.29
1776;BME280;885;42.626;23.200;2023-08-20T07:34:00;145110.59;;;26.73;57.95
1776;BME280;885;42.626;23.200;2023-08-20T07:36:28;144320.44;;;26.59;56.97
1776;BME280;885;42.626;23.200;2023-08-20T07:38:57;143512.34;;;26.37;57.17
1776;BME280;885;42.626;23.200;2023-08-20T07:41:23;143900.16;;;26.41;58.46
1776;BME280;885;42.626;23.200;2023-08-20T07:43:50;143527.31;;;26.44;57.70
1776;BME280;885;42.626;23.200;2023-08-20T07:46:18;143912.84;;;26.47;58.68
1776;BME280;885;42.626;23.200;2023-08-20T07:48:45;143122.38;;;26.32;58.28
1776;BME280;885;42.626;23.200;2023-08-20T07:51:12;142261.53;;;25.86;61.82
1776;BME280;885;42.626;23.200;2023-08-20T07:53:39;142243.25;;;25.78;62.32
1776;BME280;885;42.626;23.200;2023-08-20T07:56:07;141068.47;;;25.60;60.75
1776;BME280;885;42.626;23.200;2023-08-20T07:58:37;141031.09;;;25.44;62.41
1776;BME280;885;42.626;23.200;2023-08-20T08:01:04;141424.75;;;25.51;63.07
1776;BME280;885;42.626;23.200;2023-08-20T08:03:31;141053.75;;;25.54;61.57
1776;BME280;885;42.626;23.200;2023-08-20T08:05:57;141033.38;;;25.45;62.19
1776;BME280;885;42.626;23.200;2023-08-20T08:08:24;141056.03;;;25.55;62.00
1776;BME280;885;42.626;23.200;2023-08-20T08:10:51;142228.38;;;25.72;63.79
1776;BME280;885;42.626;23.200;2023-08-20T08:13:22;142285.53;;;25.97;61.19
1776;BME280;885;42.626;23.200;2023-08-20T08:15:50;142333.56;;;26.18;57.98
1776;BME280;885;42.626;23.200;2023-08-20T08:18:20;142761.13;;;26.40;57.75
1776;BME280;885;42.626;23.200;2023-08-20T08:20:47;142365.56;;;26.32;57.31
1776;BME280;885;42.626;23.200;2023-08-20T08:23:14;142737.06;;;26.29;58.10
1776;BME280;885;42.626;23.200;2023-08-20T08:25:41;142748.53;;;26.34;57.47
1776;BME280;885;42.626;23.200;2023-08-20T08:28:08;142379.28;;;26.38;57.01
1776;BME280;885;42.626;23.200;2023-08-20T08:30:37;141976.94;;;26.28;57.38
1776;BME280;885;42.626;23.200;2023-08-20T08:33:04;141954.16;;;26.18;59.03
1776;BME280;885;42.626;23.200;2023-08-20T08:35:31;142338.13;;;26.20;58.97
1776;BME280;885;42.626;23.200;2023-08-20T08:37:58;142363.25;;;26.31;58.50
1776;BME280;885;42.626;23.200;2023-08-20T08:40:28;143170.66;;;26.53;57.67
1776;BME280;885;42.626;23.200;2023-08-20T08:42:55;143245.41;;;26.86;53.54
1776;BME280;885;42.626;23.200;2023-08-20T08:45:23;143273.00;;;26.98;53.51
1776;BME280;885;42.626;23.200;2023-08-20T08:47:54;144070.09;;;27.15;53.92
1776;BME280;885;42.626;23.200;2023-08-20T08:50:21;143698.00;;;27.18;53.30
1776;BME280;885;42.626;23.200;2023-08-20T08:52:50;143284.50;;;27.03;53.41
1776;BME280;885;42.626;23.200;2023-08-20T08:55:18;142486.75;;;26.86;54.04
1776;BME280;885;42.626;23.200;2023-08-20T08:57:45;142085.28;;;26.75;53.67
1776;BME280;885;42.626;23.200;2023-08-20T09:00:13;141679.34;;;26.63;54.02
1776;BME280;885;42.626;23.200;2023-08-20T09:02:40;141698.75;;;26.72;52.09
1776;BME280;885;42.626;23.200;2023-08-20T09:05:09;141715.78;;;26.80;52.82
1776;BME280;885;42.626;23.200;2023-08-20T09:07:42;142077.31;;;26.72;54.93
1776;BME280;885;42.626;23.200;2023-08-20T09:10:09;141699.88;;;26.72;53.64
1776;BME280;885;42.626;23.200;2023-08-20T09:12:36;142083.00;;;26.74;54.64
1776;BME280;885;42.626;23.200;2023-08-20T09:15:10;142087.56;;;26.77;53.87
1776;BME280;885;42.626;23.200;2023-08-20T09:17:37;141316.75;;;26.70;52.72
1776;BME280;885;42.626;23.200;2023-08-20T09:20:04;140893.03;;;26.50;53.45
1776;BME280;885;42.626;23.200;2023-08-20T09:22:35;140136.41;;;26.50;51.55
1776;BME280;885;42.626;23.200;2023-08-20T09:25:03;140934.84;;;26.69;52.10
1776;BME280;885;42.626;23.200;2023-08-20T09:27:38;141749.91;;;26.95;51.24
1776;BME280;885;42.626;23.200;2023-08-20T09:30:06;142582.81;;;27.28;49.98
1776;BME280;885;42.626;23.200;2023-08-20T09:32:33;143419.09;;;27.62;49.46
1776;BME280;885;42.626;23.200;2023-08-20T09:35:00;144263.31;;;27.99;48.88
1776;BME280;885;42.626;23.200;2023-08-20T09:37:27;144714.81;;;28.30;47.30
1776;BME280;885;42.626;23.200;2023-08-20T09:39:55;144756.59;;;28.49;46.33
1776;BME280;885;42.626;23.200;2023-08-20T09:42:22;145183.09;;;28.69;45.94
1776;BME280;885;42.626;23.200;2023-08-20T09:44:51;145208.72;;;28.80;45.42
1776;BME280;885;42.626;23.200;2023-08-20T09:47:20;145220.31;;;28.85;45.69
1776;BME280;885;42.626;23.200;2023-08-20T09:49:50;145635.53;;;29.00;45.46
1776;BME280;885;42.626;23.200;2023-08-20T09:52:22;145675.25;;;29.17;44.54
1776;BME280;885;42.626;23.200;2023-08-20T09:54:59;146086.13;;;29.30;44.92
1776;BME280;885;42.626;23.200;2023-08-20T09:57:32;146889.56;;;29.48;44.92
1776;BME280;885;42.626;23.200;2023-08-20T10:00:03;146537.03;;;29.60;43.60
1776;BME280;885;42.626;23.200;2023-08-20T10:02:35;145752.28;;;29.50;43.20
1776;BME280;885;42.626;23.200;2023-08-20T10:05:02;145761.59;;;29.54;42.97
1776;BME280;885;42.626;23.200;2023-08-20T10:07:30;146179.72;;;29.70;42.77
1776;BME280;885;42.626;23.200;2023-08-20T10:10:01;146198.53;;;29.78;42.30
1776;BME280;885;42.626;23.200;2023-08-20T10:12:30;146241.84;;;29.97;41.17
1776;BME280;885;42.626;23.200;2023-08-20T10:14:58;146618.09;;;29.95;42.07
1776;BME280;885;42.626;23.200;2023-08-20T10:17:25;145023.63;;;29.64;41.44
1776;BME280;885;42.626;23.200;2023-08-20T10:19:57;145025.97;;;29.65;41.47
1776;BME280;885;42.626;23.200;2023-08-20T10:22:32;145845.72;;;29.91;41.97
1776;BME280;885;42.626;23.200;2023-08-20T10:25:00;146261.75;;;30.06;42.44
1776;BME280;885;42.626;23.200;2023-08-20T10:27:31;146692.03;;;30.27;41.52
1776;BME280;885;42.626;23.200;2023-08-20T10:29:59;147115.66;;;30.45;41.31
1776;BME280;885;42.626;23.200;2023-08-20T10:32:44;147530.03;;;30.59;41.19
1776;BME280;885;42.626;23.200;2023-08-20T10:35:12;146371.84;;;30.53;39.19
1776;BME280;885;42.626;23.200;2023-08-20T10:37:39;145602.31;;;30.50;38.71
1776;BME280;885;42.626;23.200;2023-08-20T10:40:52;144821.44;;;30.42;37.84
1776;BME280;885;42.626;23.200;2023-08-20T10:43:27;145246.69;;;30.61;37.69
1776;BME280;885;42.626;23.200;2023-08-20T10:46:16;144816.81;;;30.40;38.06
1776;BME280;885;42.626;23.200;2023-08-20T10:48:47;146018.56;;;30.65;39.05
1776;BME280;885;42.626;23.200;2023-08-20T10:51:15;146451.53;;;30.87;38.49
1776;BME280;885;42.626;23.200;2023-08-20T10:53:43;144449.59;;;30.46;37.87
1776;BME280;885;42.626;23.200;2023-08-20T10:56:16;144052.44;;;30.39;37.86
1776;BME280;885;42.626;23.200;2023-08-20T10:58:46;145244.38;;;30.60;38.97
1776;BME280;885;42.626;23.200;2023-08-20T11:01:18;145683.94;;;30.85;38.15
1776;BME280;885;42.626;23.200;2023-08-20T11:03:46;146485.50;;;31.02;38.25
1776;BME280;885;42.626;23.200;2023-08-20T11:06:14;146912.91;;;31.21;38.28
1776;BME280;885;42.626;23.200;2023-08-20T11:08:41;146525.34;;;31.19;38.13
1776;BME280;885;42.626;23.200;2023-08-20T11:11:09;145725.84;;;31.03;37.90
1776;BME280;885;42.626;23.200;2023-08-20T11:13:37;146521.78;;;31.17;38.33
1776;BME280;885;42.626;23.200;2023-08-20T11:16:06;146925.84;;;31.27;38.50
1776;BME280;885;42.626;23.200;2023-08-20T11:18:34;147333.56;;;31.38;37.94
1776;BME280;885;42.626;23.200;2023-08-20T11:21:01;147348.91;;;31.45;38.56
1776;BME280;885;42.626;23.200;2023-08-20T11:23:29;147370.13;;;31.54;38.03
1776;BME280;885;42.626;23.200;2023-08-20T11:25:56;147787.59;;;31.69;37.60
1776;BME280;885;42.626;23.200;2023-08-20T11:28:25;148960.31;;;31.80;39.32
1776;BME280;885;42.626;23.200;2023-08-20T11:30:54;148150.81;;;31.61;39.14
1776;BME280;885;42.626;23.200;2023-08-20T11:33:21;147737.97;;;31.48;39.32
1776;BME280;885;42.626;23.200;2023-08-20T11:35:49;147749.78;;;31.53;38.99
1776;BME280;885;42.626;23.200;2023-08-20T11:38:16;148181.56;;;31.74;38.09
1776;BME280;885;42.626;23.200;2023-08-20T11:40:43;147779.31;;;31.65;38.30
1776;BME280;885;42.626;23.200;2023-08-20T11:43:10;147766.31;;;31.60;38.77
1776;BME280;885;42.626;23.200;2023-08-20T11:45:45;148620.88;;;31.98;38.15
1776;BME280;885;42.626;23.200;2023-08-20T11:48:14;148191.03;;;31.78;38.10
1776;BME280;885;42.626;23.200;2023-08-20T11:50:42;148593.47;;;31.86;38.91
1776;BME280;885;42.626;23.200;2023-08-20T11:53:09;147417.25;;;31.74;37.37
1776;BME280;885;42.626;23.200;2023-08-20T11:55:38;148207.63;;;31.85;38.69
1776;BME280;885;42.626;23.200;2023-08-20T11:58:09;148649.38;;;32.10;37.61
1776;BME280;885;42.626;23.200;2023-08-20T12:00:36;149435.88;;;32.19;38.66
1776;BME280;885;42.626;23.200;2023-08-20T12:03:03;149053.28;;;32.19;37.77
1776;BME280;885;42.626;23.200;2023-08-20T12:05:32;149886.75;;;32.48;38.26
1776;BME280;885;42.626;23.200;2023-08-20T12:08:00;150311.63;;;32.65;38.10
1776;BME280;885;42.626;23.200;2023-08-20T12:10:28;149910.72;;;32.58;37.20
1776;BME280;885;42.626;23.200;2023-08-20T12:12:56;149935.88;;;32.68;36.88
1776;BME280;885;42.626;23.200;2023-08-20T12:15:25;150730.69;;;32.80;37.62
1776;BME280;885;42.626;23.200;2023-08-20T12:17:59;151182.69;;;33.09;37.47
1776;BME280;885;42.626;23.200;2023-08-20T12:20:28;151610.81;;;33.28;36.43
1776;BME280;885;42.626;23.200;2023-08-20T12:22:58;151174.22;;;33.06;36.91
1776;BME280;885;42.626;23.200;2023-08-20T12:25:26;150760.81;;;32.93;37.60
1776;BME280;885;42.626;23.200;2023-08-20T12:27:53;151183.88;;;33.10;36.80
1776;BME280;885;42.626;23.200;2023-08-20T12:30:20;150396.97;;;33.01;36.35
1776;BME280;885;42.626;23.200;2023-08-20T12:32:47;151200.78;;;33.17;36.62
1776;BME280;885;42.626;23.200;2023-08-20T12:35:14;151224.94;;;33.27;36.98
1776;BME280;885;42.626;23.200;2023-08-20T12:37:40;151596.28;;;33.22;37.25
1776;BME280;885;42.626;23.200;2023-08-20T12:40:11;150804.25;;;33.11;36.79
1776;BME280;885;42.626;23.200;2023-08-20T12:42:38;150396.97;;;33.01;36.62
1776;BME280;885;42.626;23.200;2023-08-20T12:45:06;149562.50;;;32.72;37.52
1776;BME280;885;42.626;23.200;2023-08-20T12:47:33;149974.19;;;32.84;36.75
1776;BME280;885;42.626;23.200;2023-08-20T12:50:00;149979.03;;;32.86;37.90
1776;BME280;885;42.626;23.200;2023-08-20T12:52:29;149955.03;;;32.76;37.54
1776;BME280;885;42.626;23.200;2023-08-20T12:54:56;149992.19;;;32.92;37.93
1776;BME280;885;42.626;23.200;2023-08-20T12:57:25;149134.31;;;32.53;38.94
1776;BME280;885;42.626;23.200;2023-08-20T12:59:51;148289.41;;;32.20;39.28
1776;BME280;885;42.626;23.200;2023-08-20T13:02:19;149506.38;;;32.49;39.45
1776;BME280;885;42.626;23.200;2023-08-20T13:04:47;149950.25;;;32.74;38.37
1776;BME280;885;42.626;23.200;2023-08-20T13:07:16;149974.19;;;32.84;38.18
1776;BME280;885;42.626;23.200;2023-08-20T13:09:43;150380.09;;;32.94;38.09
1776;BME280;885;42.626;23.200;2023-08-20T13:12:10;150388.47;;;32.98;38.13
1776;BME280;885;42.626;23.200;2023-08-20T13:14:40;149166.50;;;32.67;38.16
1776;BME280;885;42.626;23.200;2023-08-20T13:17:08;149557.72;;;32.70;38.36
1776;BME280;885;42.626;23.200;2023-08-20T13:19:36;149982.59;;;32.88;38.71
1776;BME280;885;42.626;23.200;2023-08-20T13:22:02;150388.47;;;32.98;37.92
1776;BME280;885;42.626;23.200;2023-08-20T13:24:29;150810.28;;;33.14;38.37
1776;BME280;885;42.626;23.200;2023-08-20T13:26:56;151176.66;;;33.07;39.12
1776;BME280;885;42.626;23.200;2023-08-20T13:29:23;150793.41;;;33.07;38.78
1776;BME280;885;42.626;23.200;2023-08-20T13:31:51;149996.97;;;32.94;38.30
1776;BME280;885;42.626;23.200;2023-08-20T13:34:18;149568.50;;;32.75;38.75
1776;BME280;885;42.626;23.200;2023-08-20T13:36:45;149562.50;;;32.72;38.30
1776;BME280;885;42.626;23.200;2023-08-20T13:39:13;149172.47;;;32.69;38.05
1776;BME280;885;42.626;23.200;2023-08-20T13:41:40;148751.56;;;32.53;38.32
1776;BME280;885;42.626;23.200;2023-08-20T13:44:07;147905.78;;;32.19;38.74
1776;BME280;885;42.626;23.200;2023-08-20T13:46:35;147922.31;;;32.26;38.84
1776;BME280;885;42.626;23.200;2023-08-20T13:49:03;147922.31;;;32.26;39.12
1776;BME280;885;42.626;23.200;2023-08-20T13:51:30;148300.09;;;32.24;40.00
1776;BME280;885;42.626;23.200;2023-08-20T13:54:00;147929.41;;;32.29;39.57
1776;BME280;885;42.626;23.200;2023-08-20T13:56:27;147504.53;;;32.11;39.26
1776;BME280;885;42.626;23.200;2023-08-20T13:58:54;147076.28;;;31.91;40.00
1776;BME280;885;42.626;23.200;2023-08-20T14:01:21;147493.91;;;32.06;39.47
1776;BME280;885;42.626;23.200;2023-08-20T14:03:48;147503.34;;;32.10;39.64
1776;BME280;885;42.626;23.200;2023-08-20T14:06:17;147858.50;;;31.99;41.30
1776;BME280;885;42.626;23.200;2023-08-20T14:08:44;147458.50;;;31.91;41.30
1776;BME280;885;42.626;23.200;2023-08-20T14:11:11;147892.78;;;32.13;40.38
1776;BME280;885;42.626;23.200;2023-08-20T14:13:38;147499.81;;;32.09;40.24
1776;BME280;885;42.626;23.200;2023-08-20T14:16:05;147506.84;;;32.12;39.89
1776;BME280;885;42.626;23.200;2023-08-20T14:18:32;147515.09;;;32.16;39.70
1776;BME280;885;42.626;23.200;2023-08-20T14:20:59;146700.00;;;31.94;40.15
1776;BME280;885;42.626;23.200;2023-08-20T14:23:28;146687.03;;;31.88;39.69
1776;BME280;885;42.626;23.200;2023-08-20T14:25:55;146290.91;;;31.82;39.38
1776;BME280;885;42.626;23.200;2023-08-20T14:28:22;145886.72;;;31.73;40.23
1776;BME280;885;42.626;23.200;2023-08-20T14:30:49;145474.53;;;31.60;39.56
1776;BME280;885;42.626;23.200;2023-08-20T14:33:18;145064.88;;;31.48;39.89
1776;BME280;885;42.626;23.200;2023-08-20T14:35:46;145061.41;;;31.46;40.59
1776;BME280;885;42.626;23.200;2023-08-20T14:38:13;144654.19;;;31.35;39.94
1776;BME280;885;42.626;23.200;2023-08-20T14:40:41;144641.47;;;31.29;40.89
1776;BME280;885;42.626;23.200;2023-08-20T14:43:08;144650.75;;;31.33;40.58
1776;BME280;885;42.626;23.200;2023-08-20T14:45:35;145425.66;;;31.38;41.36
1776;BME280;885;42.626;23.200;2023-08-20T14:48:02;144658.81;;;31.37;40.30
1776;BME280;885;42.626;23.200;2023-08-20T14:50:29;144639.16;;;31.28;41.32
1776;BME280;885;42.626;23.200;2023-08-20T14:52:56;144266.81;;;31.32;39.76
1776;BME280;885;42.626;23.200;2023-08-20T14:55:23;144269.13;;;31.33;39.78
1776;BME280;885;42.626;23.200;2023-08-20T14:57:51;145021.94;;;31.29;41.95
1776;BME280;885;42.626;23.200;2023-08-20T15:00:19;144639.16;;;31.28;40.48
1776;BME280;885;42.626;23.200;2023-08-20T15:02:48;143858.81;;;31.21;40.13
1776;BME280;885;42.626;23.200;2023-08-20T15:05:17;143809.38;;;30.99;41.72
1776;BME280;885;42.626;23.200;2023-08-20T15:07:44;143800.19;;;30.95;42.15
1776;BME280;885;42.626;23.200;2023-08-20T15:10:11;143406.28;;;30.90;42.27
1776;BME280;885;42.626;23.200;2023-08-20T15:12:38;143801.34;;;30.96;41.97
1776;BME280;885;42.626;23.200;2023-08-20T15:15:07;143390.22;;;30.83;42.73
1776;BME280;885;42.626;23.200;2023-08-20T15:17:37;142991.84;;;30.75;41.97
1776;BME280;885;42.626;23.200;2023-08-20T15:20:05;142601.63;;;30.71;41.85
1776;BME280;885;42.626;23.200;2023-08-20T15:22:34;142989.59;;;30.74;41.86
1776;BME280;885;42.626;23.200;2023-08-20T15:25:00;142581.16;;;30.62;42.16
1776;BME280;885;42.626;23.200;2023-08-20T15:27:28;142587.97;;;30.65;41.64
1776;BME280;885;42.626;23.200;2023-08-20T15:29:55;141802.19;;;30.54;41.72
1776;BME280;885;42.626;23.200;2023-08-20T15:32:23;142172.88;;;30.50;42.72
1776;BME280;885;42.626;23.200;2023-08-20T15:34:52;140962.75;;;30.20;43.01
1776;BME280;885;42.626;23.200;2023-08-20T15:37:19;140560.78;;;30.10;42.95
1776;BME280;885;42.626;23.200;2023-08-20T15:39:46;140172.47;;;30.07;42.29
1776;BME280;885;42.626;23.200;2023-08-20T15:42:13;140942.44;;;30.11;43.45
1776;BME280;885;42.626;23.200;2023-08-20T15:44:40;139751.84;;;29.89;43.01
1776;BME280;885;42.626;23.200;2023-08-20T15:47:07;139725.06;;;29.76;44.18
1776;BME280;885;42.626;23.200;2023-08-20T15:49:35;139691.50;;;29.61;44.95
1776;BME280;885;42.626;23.200;2023-08-20T15:52:03;138884.69;;;29.40;45.73
1776;BME280;885;42.626;23.200;2023-08-20T15:54:30;138504.78;;;29.40;44.35
1776;BME280;885;42.626;23.200;2023-08-20T15:56:59;138514.75;;;29.45;44.16
1776;BME280;885;42.626;23.200;2023-08-20T15:59:26;138518.06;;;29.46;44.41
1776;BME280;885;42.626;23.200;2023-08-20T16:01:53;138512.50;;;29.44;44.41
1776;BME280;885;42.626;23.200;2023-08-20T16:04:20;138107.25;;;29.32;44.63
1776;BME280;885;42.626;23.200;2023-08-20T16:06:48;137322.44;;;29.21;44.24
1776;BME280;885;42.626;23.200;2023-08-20T16:09:15;137703.22;;;29.21;44.67
1776;BME280;885;42.626;23.200;2023-08-20T16:11:42;137296.06;;;29.08;44.82
1776;BME280;885;42.626;23.200;2023-08-20T16:14:09;137292.78;;;29.07;45.17
1776;BME280;885;42.626;23.200;2023-08-20T16:16:36;136523.88;;;29.02;44.07
1776;BME280;885;42.626;23.200;2023-08-20T16:19:03;136101.97;;;28.83;45.39
1776;BME280;885;42.626;23.200;2023-08-20T16:21:30;136088.94;;;28.77;45.94
1776;BME280;885;42.626;23.200;2023-08-20T16:23:58;136076.97;;;28.71;45.79
1776;BME280;885;42.626;23.200;2023-08-20T16:26:25;137202.78;;;28.66;49.78
1776;BME280;885;42.626;23.200;2023-08-20T16:28:52;135254.69;;;28.42;47.37
1776;BME280;885;42.626;23.200;2023-08-20T16:31:19;135622.84;;;28.37;48.21
1776;BME280;885;42.626;23.200;2023-08-20T16:33:46;134462.41;;;28.25;47.47
1776;BME280;885;42.626;23.200;2023-08-20T16:36:13;134834.75;;;28.22;47.96
1776;BME280;885;42.626;23.200;2023-08-20T16:38:40;134042.88;;;28.06;48.35
1776;BME280;885;42.626;23.200;2023-08-20T16:41:08;134788.38;;;28.01;51.25
1776;BME280;885;42.626;23.200;2023-08-20T16:43:35;135170.38;;;28.02;52.20
1776;BME280;885;42.626;23.200;2023-08-20T16:46:02;133618.22;;;27.85;49.31
1776;BME280;885;42.626;23.200;2023-08-20T16:48:29;133975.31;;;27.75;51.78
1776;BME280;885;42.626;23.200;2023-08-20T16:50:57;133205.66;;;27.69;50.56
1776;BME280;885;42.626;23.200;2023-08-20T16:53:24;132819.88;;;27.65;49.74
1776;BME280;885;42.626;23.200;2023-08-20T16:55:51;132404.53;;;27.47;51.32
1776;BME280;885;42.626;23.200;2023-08-20T16:58:21;133147.06;;;27.41;53.30
1776;BME280;885;42.626;23.200;2023-08-20T17:00:48;131591.41;;;27.20;51.83
1776;BME280;885;42.626;23.200;2023-08-20T17:03:15;131183.09;;;27.06;52.46
1776;BME280;885;42.626;23.200;2023-08-20T17:05:42;131929.25;;;27.01;55.74
1776;BME280;885;42.626;23.200;2023-08-20T17:08:09;130787.53;;;26.97;53.53
1776;BME280;885;42.626;23.200;2023-08-20T17:10:36;130386.91;;;26.86;53.62
1776;BME280;885;42.626;23.200;2023-08-20T17:13:03;130744.66;;;26.77;55.25
1776;BME280;885;42.626;23.200;2023-08-20T17:15:32;130709.06;;;26.59;57.39
1776;BME280;885;42.626;23.200;2023-08-20T17:17:59;129168.44;;;26.44;55.77
1776;BME280;885;42.626;23.200;2023-08-20T17:20:26;128741.81;;;26.20;58.05
1776;BME280;885;42.626;23.200;2023-08-20T17:22:53;128358.59;;;26.17;56.72
1776;BME280;885;42.626;23.200;2023-08-20T17:25:20;129491.84;;;26.18;60.22
1776;BME280;885;42.626;23.200;2023-08-20T17:27:47;127201.28;;;26.04;55.58
1776;BME280;885;42.626;23.200;2023-08-20T17:30:14;127185.00;;;25.96;56.21
1776;BME280;885;42.626;23.200;2023-08-20T17:32:43;127188.03;;;25.97;55.85
1776;BME280;885;42.626;23.200;2023-08-20T17:35:10;126799.13;;;25.91;56.60
1776;BME280;885;42.626;23.200;2023-08-20T17:37:38;126426.47;;;25.93;55.57
1776;BME280;885;42.626;23.200;2023-08-20T17:40:06;126038.75;;;25.88;55.31
1776;BME280;885;42.626;23.200;2023-08-20T17:42:36;126427.50;;;25.94;54.88
1776;BME280;885;42.626;23.200;2023-08-20T17:45:04;126431.53;;;25.96;54.96
1776;BME280;885;42.626;23.200;2023-08-20T17:47:31;126044.81;;;25.91;54.45
1776;BME280;885;42.626;23.200;2023-08-20T17:49:59;125658.13;;;25.86;54.94
1776;BME280;885;42.626;23.200;2023-08-20T17:52:27;125273.59;;;25.82;54.43
1776;BME280;885;42.626;23.200;2023-08-20T17:54:56;125255.56;;;25.73;55.45
1776;BME280;885;42.626;23.200;2023-08-20T17:57:24;125247.53;;;25.69;55.94
1776;BME280;885;42.626;23.200;2023-08-20T17:59:51;124868.16;;;25.67;55.29
1776;BME280;885;42.626;23.200;2023-08-20T18:02:18;125247.53;;;25.69;56.04
1776;BME280;885;42.626;23.200;2023-08-20T18:04:45;124859.16;;;25.63;55.93
1776;BME280;885;42.626;23.200;2023-08-20T18:07:13;125228.53;;;25.59;56.90
1776;BME280;885;42.626;23.200;2023-08-20T18:09:40;124455.00;;;25.49;57.16
1776;BME280;885;42.626;23.200;2023-08-20T18:12:08;124847.19;;;25.57;56.47
1776;BME280;885;42.626;23.200;2023-08-20T18:14:35;124843.22;;;25.55;56.72
1776;BME280;885;42.626;23.200;2023-08-20T18:17:02;124834.22;;;25.50;57.44
1776;BME280;885;42.626;23.200;2023-08-20T18:19:29;124439.03;;;25.41;57.69
1776;BME280;885;42.626;23.200;2023-08-20T18:21:56;124823.25;;;25.45;58.20
1776;BME280;885;42.626;23.200;2023-08-20T18:24:24;124821.25;;;25.44;58.25
1776;BME280;885;42.626;23.200;2023-08-20T18:26:51;125208.50;;;25.49;58.41
1776;BME280;885;42.626;23.200;2023-08-20T18:29:18;124837.19;;;25.52;57.71
1776;BME280;885;42.626;23.200;2023-08-20T18:31:45;125211.53;;;25.51;58.53
1776;BME280;885;42.626;23.200;2023-08-20T18:34:16;125589.84;;;25.52;59.90